Flight Track Log - Related Links

Times and Time Zones

All times are in EDT time to prevent confusion due to time zone crossing. See the EGF3994 flight status page for this flight to view local times or setup timezone preferences in your user account.

Time Position Orientation Groundspeed Altitude Reporting Facility
EDT Latitude Longitude Course Direction KTS MPH feet Rate Location/Type
Mon 07:29:13 PM 41.9333 -87.9000 95° East 202 232 2,300  Level Chicago TRACON
Mon 07:31:00 PM 41.9652 -87.5183 98° East  Level FlightAware Approximate
Mon 07:31:14 PM 41.9167 -87.7425 98° East 251 289 5,300  Level Chicago Center
Mon 07:32:00 PM 41.9526 -87.3922 98° East  Level FlightAware Approximate
Mon 07:32:16 PM 41.9628 -87.6564 54° Northeast 277 319 7,300  Level Chicago Center
Mon 07:33:00 PM 41.9428 -87.2656 95° East  Level FlightAware Approximate
Mon 07:33:18 PM 41.9644 -87.5500 89° East 283 326 9,700  Level Chicago Center
Mon 07:34:00 PM 41.9337 -87.1390 95° East  Level FlightAware Approximate
Mon 07:34:20 PM 41.9594 -87.4344 93° East 301 346 11,900  Level Chicago Center
Mon 07:35:21 PM 41.9536 -87.3183 94° East 309 356 13,700 1,707 Climbing Chicago Center
Mon 07:36:23 PM 41.9489 -87.1975 93° East 320 368 15,400 1,500 Climbing Chicago Center
Mon 07:37:25 PM 41.9442 -87.0419 92° East 341 392 16,800 1,113 Climbing Chicago Center
Mon 07:38:27 PM 41.9447 -86.9019 90° East 367 422 17,700 976 Climbing Chicago Center
Mon 07:39:28 PM 41.9481 -86.7572 88° East 384 442 18,800 1,073 Climbing Chicago Center
Mon 07:40:30 PM 41.9511 -86.5986 88° East 400 460 19,900 1,065 Climbing Chicago Center
Mon 07:41:32 PM 41.9517 -86.4450 90° East 409 471 21,000 1,065 Climbing Chicago Center
Mon 07:42:34 PM 41.9536 -86.2889 89° East 416 479 22,100 976 Climbing Chicago Center
Mon 07:43:35 PM 41.9328 -86.1356 100° East 418 481 23,000 439 Climbing Chicago Center
Mon 07:44:37 PM 41.8875 -85.9858 112° Southeast 431 496 23,000  Level Chicago Center
Mon 07:45:39 PM 41.8417 -85.8317 112° Southeast 443 510 23,000  Level Chicago Center
Mon 07:46:41 PM 41.7875 -85.6478 112° Southeast 442 509 23,000  Level Chicago Center
Mon 07:47:43 PM 41.7211 -85.5125 123° Southeast 447 514 23,000  Level Chicago Center
Mon 07:48:44 PM 41.6158 -85.4569 158° South 442 509 23,000  Level Chicago Center
Mon 07:49:46 PM 41.5000 -85.4067 162° South 441 507 23,000  Level Chicago Center
Mon 07:50:48 PM 41.3614 -85.3494 163° South 437 503 23,000 -774 Level Chicago Center
Mon 07:51:50 PM 41.2467 -85.3028 163° South 434 499 21,400 -1,548 Descending Chicago Center
Mon 07:52:52 PM 41.1508 -85.2244 148° Southeast 411 473 19,800 -1,415 Descending Chicago Center
Mon 07:53:53 PM 41.0719 -85.1119 133° Southeast 415 478 18,500 -1,122 Descending Chicago Center
Mon 07:54:55 PM 40.9961 -85.0044 133° Southeast 406 467 17,500 -1,065 Descending Chicago Center
Mon 07:55:57 PM 40.9189 -84.9003 134° Southeast 400 460 16,300 -1,210 Descending Chicago Center
Mon 07:56:59 PM 40.8283 -84.7761 134° Southeast 393 452 15,000 -629 Descending Chicago Center
Mon 07:58:01 PM 40.7544 -84.6708 133° Southeast 392 451 15,000 -194 Level Chicago Center
Mon 07:59:03 PM 40.6800 -84.5697 134° Southeast 390 449 14,600 -720 Descending Chicago Center
Mon 08:00:06 PM 40.6042 -84.4675 134° Southeast 390 449 13,500 -1,023 Descending Chicago Center
Mon 08:00:31 PM 40.5728 -84.4286 137° Southeast 384 442 13,100 -1,343 Descending Indianapolis Center
Mon 08:01:13 PM 40.4917 -84.4011 166° South 366 421 12,000 -1,355 Descending Indianapolis Center
Mon 08:01:33 PM 40.4728 -84.3933 163° South 367 422 11,700 -1,400 Descending Indianapolis Center
Mon 08:02:13 PM 40.3981 -84.3664 165° South 342 394 10,600 -1,574 Descending Indianapolis Center
Mon 08:02:34 PM 40.3664 -84.3556 165° South 339 390 10,100 -1,180 Descending Indianapolis Center
Mon 08:03:14 PM 40.3206 -84.3392 165° South 276 318 9,400 -1,452 Descending Indianapolis Center
Mon 08:03:36 PM 40.2917 -84.3281 164° South 297 342 8,600 -2,093 Descending Indianapolis Center
Mon 08:03:57 PM 40.2700 -84.3186 162° South 264 304 7,900 -1,672 Descending Indianapolis Center
Mon 08:04:37 PM 40.2203 -84.3006 165° South 279 321 6,900 -1,700 Descending Indianapolis Center
Mon 08:04:57 PM 40.1947 -84.2894 162° South 261 300 6,200 -1,548 Descending Indianapolis Center
Mon 08:05:39 PM 40.1522 -84.2736 164° South 265 305 5,300 -1,343 Descending Indianapolis Center
Mon 08:06:04 PM 40.1256 -84.2639 164° South 243 280 4,700 -1,440 Descending Indianapolis Center

Login

Don't have an account? Register now (free) for customized features, flight alerts, and more!